sensor_id;sensor_type;location;lat;lon;timestamp;temperature;humidity
18126;DHT22;53956;52.442;13.284;2023-09-18T00:01:02;23.60;94.40
18126;DHT22;53956;52.442;13.284;2023-09-18T00:03:31;23.50;94.40
18126;DHT22;53956;52.442;13.284;2023-09-18T00:05:58;23.70;92.00
18126;DHT22;53956;52.442;13.284;2023-09-18T00:08:25;23.70;92.00
18126;DHT22;53956;52.442;13.284;2023-09-18T00:10:53;23.60;94.10
18126;DHT22;53956;52.442;13.284;2023-09-18T00:13:20;23.70;92.40
18126;DHT22;53956;52.442;13.284;2023-09-18T00:15:48;23.80;92.00
18126;DHT22;53956;52.442;13.284;2023-09-18T00:18:17;23.90;91.80
18126;DHT22;53956;52.442;13.284;2023-09-18T00:20:44;23.80;92.50
18126;DHT22;53956;52.442;13.284;2023-09-18T00:23:13;23.80;91.70
18126;DHT22;53956;52.442;13.284;2023-09-18T00:25:40;23.90;91.60
18126;DHT22;53956;52.442;13.284;2023-09-18T00:28:08;23.90;91.50
18126;DHT22;53956;52.442;13.284;2023-09-18T00:30:35;23.90;91.40
18126;DHT22;53956;52.442;13.284;2023-09-18T00:33:03;23.70;91.60
18126;DHT22;53956;52.442;13.284;2023-09-18T00:35:30;23.70;92.20
18126;DHT22;53956;52.442;13.284;2023-09-18T00:37:57;23.80;91.60
18126;DHT22;53956;52.442;13.284;2023-09-18T00:40:23;23.80;91.40
18126;DHT22;53956;52.442;13.284;2023-09-18T00:42:50;23.70;91.90
18126;DHT22;53956;52.442;13.284;2023-09-18T00:45:17;23.50;94.20
18126;DHT22;53956;52.442;13.284;2023-09-18T00:47:44;23.60;93.90
18126;DHT22;53956;52.442;13.284;2023-09-18T00:50:12;23.70;91.60
18126;DHT22;53956;52.442;13.284;2023-09-18T00:52:40;23.60;93.70
18126;DHT22;53956;52.442;13.284;2023-09-18T00:55:08;23.70;92.40
18126;DHT22;53956;52.442;13.284;2023-09-18T00:57:35;23.80;92.00
18126;DHT22;53956;52.442;13.284;2023-09-18T01:00:03;23.80;91.50
18126;DHT22;53956;52.442;13.284;2023-09-18T01:02:30;23.80;91.60
18126;DHT22;53956;52.442;13.284;2023-09-18T01:04:57;23.80;91.70
18126;DHT22;53956;52.442;13.284;2023-09-18T01:07:25;23.80;91.80
18126;DHT22;53956;52.442;13.284;2023-09-18T01:09:54;23.70;91.70
18126;DHT22;53956;52.442;13.284;2023-09-18T01:12:24;23.70;92.10
18126;DHT22;53956;52.442;13.284;2023-09-18T01:14:58;23.60;94.30
18126;DHT22;53956;52.442;13.284;2023-09-18T01:17:28;23.70;92.00
18126;DHT22;53956;52.442;13.284;2023-09-18T01:19:55;23.50;94.50
18126;DHT22;53956;52.442;13.284;2023-09-18T01:22:22;23.60;94.40
18126;DHT22;53956;52.442;13.284;2023-09-18T01:24:50;23.60;94.70
18126;DHT22;53956;52.442;13.284;2023-09-18T01:27:17;23.60;92.70
18126;DHT22;53956;52.442;13.284;2023-09-18T01:29:44;23.50;94.60
18126;DHT22;53956;52.442;13.284;2023-09-18T01:32:12;23.60;92.70
18126;DHT22;53956;52.442;13.284;2023-09-18T01:34:42;23.70;92.00
18126;DHT22;53956;52.442;13.284;2023-09-18T01:37:11;23.40;94.60
18126;DHT22;53956;52.442;13.284;2023-09-18T01:39:39;23.30;95.40
18126;DHT22;53956;52.442;13.284;2023-09-18T01:42:08;23.50;95.30
18126;DHT22;53956;52.442;13.284;2023-09-18T01:44:36;23.60;95.10
18126;DHT22;53956;52.442;13.284;2023-09-18T01:47:09;23.40;95.40
18126;DHT22;53956;52.442;13.284;2023-09-18T01:49:38;23.30;95.50
18126;DHT22;53956;52.442;13.284;2023-09-18T01:52:07;23.20;95.50
18126;DHT22;53956;52.442;13.284;2023-09-18T01:54:36;23.20;96.10
18126;DHT22;53956;52.442;13.284;2023-09-18T01:57:03;23.40;95.60
18126;DHT22;53956;52.442;13.284;2023-09-18T01:59:34;23.20;95.60
18126;DHT22;53956;52.442;13.284;2023-09-18T02:02:01;23.10;96.70
18126;DHT22;53956;52.442;13.284;2023-09-18T02:04:29;23.00;97.20
18126;DHT22;53956;52.442;13.284;2023-09-18T02:06:56;23.00;97.30
18126;DHT22;53956;52.442;13.284;2023-09-18T02:09:22;23.20;96.10
18126;DHT22;53956;52.442;13.284;2023-09-18T02:11:49;23.10;96.00
18126;DHT22;53956;52.442;13.284;2023-09-18T02:14:15;22.90;97.60
18126;DHT22;53956;52.442;13.284;2023-09-18T02:16:43;23.10;97.00
18126;DHT22;53956;52.442;13.284;2023-09-18T02:19:12;23.10;96.30
18126;DHT22;53956;52.442;13.284;2023-09-18T02:21:39;23.20;96.50
18126;DHT22;53956;52.442;13.284;2023-09-18T02:24:06;23.00;97.10
18126;DHT22;53956;52.442;13.284;2023-09-18T02:26:33;22.90;96.60
18126;DHT22;53956;52.442;13.284;2023-09-18T02:29:02;23.20;97.00
18126;DHT22;53956;52.442;13.284;2023-09-18T02:31:30;23.20;96.50
18126;DHT22;53956;52.442;13.284;2023-09-18T02:33:57;22.90;96.70
18126;DHT22;53956;52.442;13.284;2023-09-18T02:36:24;22.90;97.10
18126;DHT22;53956;52.442;13.284;2023-09-18T02:38:51;23.10;97.20
18126;DHT22;53956;52.442;13.284;2023-09-18T02:41:17;22.90;96.80
18126;DHT22;53956;52.442;13.284;2023-09-18T02:43:44;22.90;97.60
18126;DHT22;53956;52.442;13.284;2023-09-18T02:46:11;23.00;96.80
18126;DHT22;53956;52.442;13.284;2023-09-18T02:48:37;22.90;97.90
18126;DHT22;53956;52.442;13.284;2023-09-18T02:51:05;22.70;98.30
18126;DHT22;53956;52.442;13.284;2023-09-18T02:53:32;22.80;98.20
18126;DHT22;53956;52.442;13.284;2023-09-18T02:55:59;22.90;97.30
18126;DHT22;53956;52.442;13.284;2023-09-18T02:58:26;22.80;97.60
18126;DHT22;53956;52.442;13.284;2023-09-18T03:00:56;22.90;97.30
18126;DHT22;53956;52.442;13.284;2023-09-18T03:03:23;23.10;97.10
18126;DHT22;53956;52.442;13.284;2023-09-18T03:05:50;23.00;97.10
18126;DHT22;53956;52.442;13.284;2023-09-18T03:08:18;22.90;97.70
18126;DHT22;53956;52.442;13.284;2023-09-18T03:10:45;22.90;96.90
18126;DHT22;53956;52.442;13.284;2023-09-18T03:13:14;22.90;98.40
18126;DHT22;53956;52.442;13.284;2023-09-18T03:15:44;22.90;97.80
18126;DHT22;53956;52.442;13.284;2023-09-18T03:18:12;22.90;97.40
18126;DHT22;53956;52.442;13.284;2023-09-18T03:20:39;23.10;97.10
18126;DHT22;53956;52.442;13.284;2023-09-18T03:23:06;23.00;96.70
18126;DHT22;53956;52.442;13.284;2023-09-18T03:25:35;23.00;97.20
18126;DHT22;53956;52.442;13.284;2023-09-18T03:28:03;23.10;97.10
18126;DHT22;53956;52.442;13.284;2023-09-18T03:30:31;22.90;97.60
18126;DHT22;53956;52.442;13.284;2023-09-18T03:32:58;23.00;97.30
18126;DHT22;53956;52.442;13.284;2023-09-18T03:35:28;23.00;97.30
18126;DHT22;53956;52.442;13.284;2023-09-18T03:37:55;22.70;98.20
18126;DHT22;53956;52.442;13.284;2023-09-18T03:40:22;22.90;97.70
18126;DHT22;53956;52.442;13.284;2023-09-18T03:42:50;22.70;98.30
18126;DHT22;53956;52.442;13.284;2023-09-18T03:45:17;22.70;98.20
18126;DHT22;53956;52.442;13.284;2023-09-18T03:47:47;22.90;98.20
18126;DHT22;53956;52.442;13.284;2023-09-18T03:50:15;22.80;98.60
18126;DHT22;53956;52.442;13.284;2023-09-18T03:52:42;22.80;98.30
18126;DHT22;53956;52.442;13.284;2023-09-18T03:55:09;22.70;98.50
18126;DHT22;53956;52.442;13.284;2023-09-18T03:57:36;22.70;98.90
18126;DHT22;53956;52.442;13.284;2023-09-18T04:00:05;22.80;98.70
18126;DHT22;53956;52.442;13.284;2023-09-18T04:02:42;22.50;99.30
18126;DHT22;53956;52.442;13.284;2023-09-18T04:05:08;22.70;99.00
18126;DHT22;53956;52.442;13.284;2023-09-18T04:07:35;22.60;99.90
18126;DHT22;53956;52.442;13.284;2023-09-18T04:10:02;22.70;99.00
18126;DHT22;53956;52.442;13.284;2023-09-18T04:12:29;22.60;99.10
18126;DHT22;53956;52.442;13.284;2023-09-18T04:14:55;22.70;99.20
18126;DHT22;53956;52.442;13.284;2023-09-18T04:17:23;22.60;99.50
18126;DHT22;53956;52.442;13.284;2023-09-18T04:19:51;22.60;99.40
18126;DHT22;53956;52.442;13.284;2023-09-18T04:22:17;22.50;99.60
18126;DHT22;53956;52.442;13.284;2023-09-18T04:24:44;22.30;99.90
18126;DHT22;53956;52.442;13.284;2023-09-18T04:27:11;22.30;99.90
18126;DHT22;53956;52.442;13.284;2023-09-18T04:29:37;22.40;99.90
18126;DHT22;53956;52.442;13.284;2023-09-18T04:32:04;22.60;99.90
18126;DHT22;53956;52.442;13.284;2023-09-18T04:34:33;22.60;99.90
18126;DHT22;53956;52.442;13.284;2023-09-18T04:37:00;22.70;99.80
18126;DHT22;53956;52.442;13.284;2023-09-18T04:39:29;22.60;99.90
18126;DHT22;53956;52.442;13.284;2023-09-18T04:41:56;22.60;99.80
18126;DHT22;53956;52.442;13.284;2023-09-18T04:44:22;22.40;99.90
18126;DHT22;53956;52.442;13.284;2023-09-18T04:46:49;22.20;99.90
18126;DHT22;53956;52.442;13.284;2023-09-18T04:49:16;22.30;99.90
18126;DHT22;53956;52.442;13.284;2023-09-18T04:51:44;22.20;99.90
18126;DHT22;53956;52.442;13.284;2023-09-18T04:54:11;21.90;99.90
18126;DHT22;53956;52.442;13.284;2023-09-18T04:56:38;22.00;99.90
18126;DHT22;53956;52.442;13.284;2023-09-18T04:59:05;22.40;99.90
18126;DHT22;53956;52.442;13.284;2023-09-18T05:01:31;22.30;99.90
18126;DHT22;53956;52.442;13.284;2023-09-18T05:03:58;22.50;99.90
18126;DHT22;53956;52.442;13.284;2023-09-18T05:06:25;22.40;99.90
18126;DHT22;53956;52.442;13.284;2023-09-18T05:08:53;22.30;99.90
18126;DHT22;53956;52.442;13.284;2023-09-18T05:11:21;22.50;99.90
18126;DHT22;53956;52.442;13.284;2023-09-18T05:13:47;22.50;99.90
18126;DHT22;53956;52.442;13.284;2023-09-18T05:16:14;22.00;99.90
18126;DHT22;53956;52.442;13.284;2023-09-18T05:18:41;22.30;99.90
18126;DHT22;53956;52.442;13.284;2023-09-18T05:21:09;22.50;99.90
18126;DHT22;53956;52.442;13.284;2023-09-18T05:23:36;22.40;99.90
18126;DHT22;53956;52.442;13.284;2023-09-18T05:26:04;22.20;99.90
18126;DHT22;53956;52.442;13.284;2023-09-18T05:28:31;22.30;99.90
18126;DHT22;53956;52.442;13.284;2023-09-18T05:30:58;22.10;99.90
18126;DHT22;53956;52.442;13.284;2023-09-18T05:33:24;22.40;99.90
18126;DHT22;53956;52.442;13.284;2023-09-18T05:35:51;22.50;99.90
18126;DHT22;53956;52.442;13.284;2023-09-18T05:38:18;22.70;99.90
18126;DHT22;53956;52.442;13.284;2023-09-18T05:40:44;23.30;98.80
18126;DHT22;53956;52.442;13.284;2023-09-18T05:43:14;24.30;93.30
18126;DHT22;53956;52.442;13.284;2023-09-18T05:45:41;25.00;89.10
18126;DHT22;53956;52.442;13.284;2023-09-18T05:48:07;25.80;88.20
18126;DHT22;53956;52.442;13.284;2023-09-18T05:50:35;26.00;86.30
18126;DHT22;53956;52.442;13.284;2023-09-18T05:53:02;26.50;84.10
18126;DHT22;53956;52.442;13.284;2023-09-18T05:55:30;26.60;83.70
18126;DHT22;53956;52.442;13.284;2023-09-18T05:57:57;26.10;85.50
18126;DHT22;53956;52.442;13.284;2023-09-18T06:00:25;25.80;86.40
18126;DHT22;53956;52.442;13.284;2023-09-18T06:02:52;25.30;88.60
18126;DHT22;53956;52.442;13.284;2023-09-18T06:05:19;25.60;88.20
18126;DHT22;53956;52.442;13.284;2023-09-18T06:07:47;25.60;87.60
18126;DHT22;53956;52.442;13.284;2023-09-18T06:10:14;25.60;87.30
18126;DHT22;53956;52.442;13.284;2023-09-18T06:12:41;25.70;87.80
18126;DHT22;53956;52.442;13.284;2023-09-18T06:15:08;26.00;87.20
18126;DHT22;53956;52.442;13.284;2023-09-18T06:17:38;26.20;85.70
18126;DHT22;53956;52.442;13.284;2023-09-18T06:20:06;26.70;83.80
18126;DHT22;53956;52.442;13.284;2023-09-18T06:22:35;27.50;81.80
18126;DHT22;53956;52.442;13.284;2023-09-18T06:25:03;28.40;79.90
18126;DHT22;53956;52.442;13.284;2023-09-18T06:27:30;28.60;79.00
18126;DHT22;53956;52.442;13.284;2023-09-18T06:29:58;29.10;77.60
18126;DHT22;53956;52.442;13.284;2023-09-18T06:32:24;29.70;74.60
18126;DHT22;53956;52.442;13.284;2023-09-18T06:34:52;29.90;73.80
18126;DHT22;53956;52.442;13.284;2023-09-18T06:37:19;29.70;72.70
18126;DHT22;53956;52.442;13.284;2023-09-18T06:39:45;28.30;77.50
18126;DHT22;53956;52.442;13.284;2023-09-18T06:42:12;28.80;78.40
18126;DHT22;53956;52.442;13.284;2023-09-18T06:44:39;29.40;75.50
18126;DHT22;53956;52.442;13.284;2023-09-18T06:47:06;29.80;74.00
18126;DHT22;53956;52.442;13.284;2023-09-18T06:49:33;30.50;71.80
18126;DHT22;53956;52.442;13.284;2023-09-18T06:52:01;30.80;71.60
18126;DHT22;53956;52.442;13.284;2023-09-18T06:54:27;31.30;70.70
18126;DHT22;53956;52.442;13.284;2023-09-18T06:56:54;31.60;69.90
18126;DHT22;53956;52.442;13.284;2023-09-18T06:59:21;31.90;67.90
18126;DHT22;53956;52.442;13.284;2023-09-18T07:01:47;32.20;67.30
18126;DHT22;53956;52.442;13.284;2023-09-18T07:04:14;32.60;66.00
18126;DHT22;53956;52.442;13.284;2023-09-18T07:06:41;32.70;64.20
18126;DHT22;53956;52.442;13.284;2023-09-18T07:09:08;32.80;64.90
18126;DHT22;53956;52.442;13.284;2023-09-18T07:11:37;32.50;64.30
18126;DHT22;53956;52.442;13.284;2023-09-18T07:14:04;32.40;65.00
18126;DHT22;53956;52.442;13.284;2023-09-18T07:16:32;32.40;63.80
18126;DHT22;53956;52.442;13.284;2023-09-18T07:18:59;32.20;64.70
18126;DHT22;53956;52.442;13.284;2023-09-18T07:21:26;32.50;64.00
18126;DHT22;53956;52.442;13.284;2023-09-18T07:23:54;32.60;64.50
18126;DHT22;53956;52.442;13.284;2023-09-18T07:26:22;32.60;63.00
18126;DHT22;53956;52.442;13.284;2023-09-18T07:28:48;32.80;63.40
18126;DHT22;53956;52.442;13.284;2023-09-18T07:31:15;32.70;62.80
18126;DHT22;53956;52.442;13.284;2023-09-18T07:33:42;33.00;63.60
18126;DHT22;53956;52.442;13.284;2023-09-18T07:36:08;33.40;62.70
18126;DHT22;53956;52.442;13.284;2023-09-18T07:38:35;33.30;62.50
18126;DHT22;53956;52.442;13.284;2023-09-18T07:41:02;33.30;61.60
18126;DHT22;53956;52.442;13.284;2023-09-18T07:43:30;32.60;63.40
18126;DHT22;53956;52.442;13.284;2023-09-18T07:45:56;32.80;63.40
18126;DHT22;53956;52.442;13.284;2023-09-18T07:48:25;33.00;62.60
18126;DHT22;53956;52.442;13.284;2023-09-18T07:50:51;33.00;62.20
18126;DHT22;53956;52.442;13.284;2023-09-18T07:53:20;32.20;63.50
18126;DHT22;53956;52.442;13.284;2023-09-18T07:55:48;32.00;64.10
18126;DHT22;53956;52.442;13.284;2023-09-18T07:58:15;31.40;66.70
18126;DHT22;53956;52.442;13.284;2023-09-18T08:00:42;31.50;66.20
18126;DHT22;53956;52.442;13.284;2023-09-18T08:03:09;32.20;65.00
18126;DHT22;53956;52.442;13.284;2023-09-18T08:05:36;31.80;65.10
18126;DHT22;53956;52.442;13.284;2023-09-18T08:08:03;31.10;67.20
18126;DHT22;53956;52.442;13.284;2023-09-18T08:10:31;31.50;67.40
18126;DHT22;53956;52.442;13.284;2023-09-18T08:12:58;32.40;64.30
18126;DHT22;53956;52.442;13.284;2023-09-18T08:15:24;32.50;64.20
18126;DHT22;53956;52.442;13.284;2023-09-18T08:17:52;32.70;63.40
18126;DHT22;53956;52.442;13.284;2023-09-18T08:20:19;32.60;63.90
18126;DHT22;53956;52.442;13.284;2023-09-18T08:22:46;32.60;63.10
18126;DHT22;53956;52.442;13.284;2023-09-18T08:25:13;32.90;63.80
18126;DHT22;53956;52.442;13.284;2023-09-18T08:27:40;32.60;63.60
18126;DHT22;53956;52.442;13.284;2023-09-18T08:30:10;32.60;63.30
18126;DHT22;53956;52.442;13.284;2023-09-18T08:32:37;31.80;65.90
18126;DHT22;53956;52.442;13.284;2023-09-18T08:35:06;31.20;69.10
18126;DHT22;53956;52.442;13.284;2023-09-18T08:37:32;31.50;69.70
18126;DHT22;53956;52.442;13.284;2023-09-18T08:39:59;31.40;69.20
18126;DHT22;53956;52.442;13.284;2023-09-18T08:42:28;30.60;69.10
18126;DHT22;53956;52.442;13.284;2023-09-18T08:44:57;30.40;70.40
18126;DHT22;53956;52.442;13.284;2023-09-18T08:47:25;30.20;70.50
18126;DHT22;53956;52.442;13.284;2023-09-18T08:49:53;29.40;71.60
18126;DHT22;53956;52.442;13.284;2023-09-18T08:52:23;29.50;71.80
18126;DHT22;53956;52.442;13.284;2023-09-18T08:54:51;29.00;75.40
18126;DHT22;53956;52.442;13.284;2023-09-18T08:57:18;28.90;75.60
18126;DHT22;53956;52.442;13.284;2023-09-18T08:59:46;29.10;76.30
18126;DHT22;53956;52.442;13.284;2023-09-18T09:02:14;28.60;76.60
18126;DHT22;53956;52.442;13.284;2023-09-18T09:04:41;28.80;77.70
18126;DHT22;53956;52.442;13.284;2023-09-18T09:07:07;28.80;76.90
18126;DHT22;53956;52.442;13.284;2023-09-18T09:09:35;28.80;77.40
18126;DHT22;53956;52.442;13.284;2023-09-18T09:12:03;28.70;76.70
18126;DHT22;53956;52.442;13.284;2023-09-18T09:14:29;28.80;77.10
18126;DHT22;53956;52.442;13.284;2023-09-18T09:16:56;28.50;77.30
18126;DHT22;53956;52.442;13.284;2023-09-18T09:19:30;28.40;77.40
18126;DHT22;53956;52.442;13.284;2023-09-18T09:21:58;28.50;77.80
18126;DHT22;53956;52.442;13.284;2023-09-18T09:24:41;28.70;77.40
18126;DHT22;53956;52.442;13.284;2023-09-18T09:27:08;28.50;77.20
18126;DHT22;53956;52.442;13.284;2023-09-18T09:29:35;28.40;78.70
18126;DHT22;53956;52.442;13.284;2023-09-18T09:32:15;28.40;78.00
18126;DHT22;53956;52.442;13.284;2023-09-18T09:34:43;27.80;77.70
18126;DHT22;53956;52.442;13.284;2023-09-18T09:37:11;27.80;78.40
18126;DHT22;53956;52.442;13.284;2023-09-18T09:39:50;28.10;79.00
18126;DHT22;53956;52.442;13.284;2023-09-18T09:42:18;27.80;79.50
18126;DHT22;53956;52.442;13.284;2023-09-18T09:45:00;27.80;79.90
18126;DHT22;53956;52.442;13.284;2023-09-18T09:47:32;27.70;79.70
18126;DHT22;53956;52.442;13.284;2023-09-18T09:50:06;27.50;80.40
18126;DHT22;53956;52.442;13.284;2023-09-18T09:52:33;27.60;80.20
18126;DHT22;53956;52.442;13.284;2023-09-18T09:55:01;27.50;80.50
18126;DHT22;53956;52.442;13.284;2023-09-18T09:57:29;27.30;80.30
18126;DHT22;53956;52.442;13.284;2023-09-18T10:00:03;27.10;80.80
18126;DHT22;53956;52.442;13.284;2023-09-18T10:02:46;27.40;81.00
18126;DHT22;53956;52.442;13.284;2023-09-18T10:05:12;27.30;80.70
18126;DHT22;53956;52.442;13.284;2023-09-18T10:07:39;27.30;81.00
18126;DHT22;53956;52.442;13.284;2023-09-18T10:10:08;27.30;81.30
18126;DHT22;53956;52.442;13.284;2023-09-18T10:12:36;27.40;80.80
18126;DHT22;53956;52.442;13.284;2023-09-18T10:15:04;27.20;80.70
18126;DHT22;53956;52.442;13.284;2023-09-18T10:17:36;27.20;81.70
18126;DHT22;53956;52.442;13.284;2023-09-18T10:20:08;27.30;81.80
18126;DHT22;53956;52.442;13.284;2023-09-18T10:22:45;27.30;81.90
18126;DHT22;53956;52.442;13.284;2023-09-18T10:25:14;27.40;81.80
18126;DHT22;53956;52.442;13.284;2023-09-18T10:27:45;27.40;81.40
18126;DHT22;53956;52.442;13.284;2023-09-18T10:30:15;27.50;82.10
18126;DHT22;53956;52.442;13.284;2023-09-18T10:32:44;27.40;80.50
18126;DHT22;53956;52.442;13.284;2023-09-18T10:35:12;27.30;80.30
18126;DHT22;53956;52.442;13.284;2023-09-18T10:37:38;27.30;81.00
18126;DHT22;53956;52.442;13.284;2023-09-18T10:40:08;27.40;81.00
18126;DHT22;53956;52.442;13.284;2023-09-18T10:42:37;27.20;81.40
18126;DHT22;53956;52.442;13.284;2023-09-18T10:45:06;27.20;81.60
18126;DHT22;53956;52.442;13.284;2023-09-18T10:47:37;27.30;82.00
18126;DHT22;53956;52.442;13.284;2023-09-18T10:50:05;27.20;81.60
18126;DHT22;53956;52.442;13.284;2023-09-18T10:52:32;27.20;81.70
18126;DHT22;53956;52.442;13.284;2023-09-18T10:55:00;27.30;82.00
18126;DHT22;53956;52.442;13.284;2023-09-18T10:57:28;27.40;82.00
18126;DHT22;53956;52.442;13.284;2023-09-18T10:59:56;27.50;82.70
18126;DHT22;53956;52.442;13.284;2023-09-18T11:02:24;27.20;81.80
18126;DHT22;53956;52.442;13.284;2023-09-18T11:04:52;27.30;82.30
18126;DHT22;53956;52.442;13.284;2023-09-18T11:07:21;27.30;81.90
18126;DHT22;53956;52.442;13.284;2023-09-18T11:09:48;27.40;82.70
18126;DHT22;53956;52.442;13.284;2023-09-18T11:12:16;27.20;82.60
18126;DHT22;53956;52.442;13.284;2023-09-18T11:14:45;27.30;83.20
18126;DHT22;53956;52.442;13.284;2023-09-18T11:17:32;27.20;82.30
18126;DHT22;53956;52.442;13.284;2023-09-18T11:20:07;27.30;82.90
18126;DHT22;53956;52.442;13.284;2023-09-18T11:22:39;27.10;83.00
18126;DHT22;53956;52.442;13.284;2023-09-18T11:25:28;27.10;83.40
18126;DHT22;53956;52.442;13.284;2023-09-18T11:27:55;27.30;83.30
18126;DHT22;53956;52.442;13.284;2023-09-18T11:30:22;27.30;83.20
18126;DHT22;53956;52.442;13.284;2023-09-18T11:32:51;27.30;83.70
18126;DHT22;53956;52.442;13.284;2023-09-18T11:35:18;27.20;83.60
18126;DHT22;53956;52.442;13.284;2023-09-18T11:37:45;27.30;83.30
18126;DHT22;53956;52.442;13.284;2023-09-18T11:40:28;27.30;83.60
18126;DHT22;53956;52.442;13.284;2023-09-18T11:43:21;27.20;83.40
18126;DHT22;53956;52.442;13.284;2023-09-18T11:45:51;27.10;84.20
18126;DHT22;53956;52.442;13.284;2023-09-18T11:48:21;27.10;83.70
18126;DHT22;53956;52.442;13.284;2023-09-18T11:50:49;27.00;83.50
18126;DHT22;53956;52.442;13.284;2023-09-18T11:53:16;27.00;84.20
18126;DHT22;53956;52.442;13.284;2023-09-18T11:55:44;27.10;83.90
18126;DHT22;53956;52.442;13.284;2023-09-18T11:58:11;27.10;84.20
18126;DHT22;53956;52.442;13.284;2023-09-18T12:00:38;27.10;84.70
18126;DHT22;53956;52.442;13.284;2023-09-18T12:03:15;27.10;84.30
18126;DHT22;53956;52.442;13.284;2023-09-18T12:05:52;27.10;84.50
18126;DHT22;53956;52.442;13.284;2023-09-18T12:08:19;27.10;84.90
18126;DHT22;53956;52.442;13.284;2023-09-18T12:10:49;27.10;84.60
18126;DHT22;53956;52.442;13.284;2023-09-18T12:13:15;27.30;84.60
18126;DHT22;53956;52.442;13.284;2023-09-18T12:15:42;27.40;83.30
18126;DHT22;53956;52.442;13.284;2023-09-18T12:18:09;27.40;84.20
18126;DHT22;53956;52.442;13.284;2023-09-18T12:20:37;27.40;82.00
18126;DHT22;53956;52.442;13.284;2023-09-18T12:23:07;27.40;81.40
18126;DHT22;53956;52.442;13.284;2023-09-18T12:25:33;27.30;81.30
18126;DHT22;53956;52.442;13.284;2023-09-18T12:28:00;27.30;81.10
18126;DHT22;53956;52.442;13.284;2023-09-18T12:30:29;27.30;81.70
18126;DHT22;53956;52.442;13.284;2023-09-18T12:32:58;27.20;81.40
18126;DHT22;53956;52.442;13.284;2023-09-18T12:35:26;27.30;81.20
18126;DHT22;53956;52.442;13.284;2023-09-18T12:37:55;27.30;81.50
18126;DHT22;53956;52.442;13.284;2023-09-18T12:40:24;27.30;81.10
18126;DHT22;53956;52.442;13.284;2023-09-18T12:42:53;27.20;81.30
18126;DHT22;53956;52.442;13.284;2023-09-18T12:45:20;27.10;80.80
18126;DHT22;53956;52.442;13.284;2023-09-18T12:47:47;27.10;81.50
18126;DHT22;53956;52.442;13.284;2023-09-18T12:50:14;27.00;81.60
18126;DHT22;53956;52.442;13.284;2023-09-18T12:52:41;27.20;81.70
18126;DHT22;53956;52.442;13.284;2023-09-18T12:55:08;27.10;81.90
18126;DHT22;53956;52.442;13.284;2023-09-18T12:57:39;27.20;82.00
18126;DHT22;53956;52.442;13.284;2023-09-18T13:00:10;27.10;82.00
18126;DHT22;53956;52.442;13.284;2023-09-18T13:02:38;27.10;82.50
18126;DHT22;53956;52.442;13.284;2023-09-18T13:05:06;27.10;82.60
18126;DHT22;53956;52.442;13.284;2023-09-18T13:07:43;27.10;82.40
18126;DHT22;53956;52.442;13.284;2023-09-18T13:10:11;27.00;83.20
18126;DHT22;53956;52.442;13.284;2023-09-18T13:12:41;27.10;83.10
18126;DHT22;53956;52.442;13.284;2023-09-18T13:15:07;27.00;82.80
18126;DHT22;53956;52.442;13.284;2023-09-18T13:17:39;27.00;83.50
18126;DHT22;53956;52.442;13.284;2023-09-18T13:20:13;26.90;83.30
18126;DHT22;53956;52.442;13.284;2023-09-18T13:22:40;26.80;84.00
18126;DHT22;53956;52.442;13.284;2023-09-18T13:25:08;26.80;83.70
18126;DHT22;53956;52.442;13.284;2023-09-18T13:27:36;26.90;84.00
18126;DHT22;53956;52.442;13.284;2023-09-18T13:30:07;27.00;83.80
18126;DHT22;53956;52.442;13.284;2023-09-18T13:32:35;26.80;85.50
18126;DHT22;53956;52.442;13.284;2023-09-18T13:35:02;26.80;86.60
18126;DHT22;53956;52.442;13.284;2023-09-18T13:37:31;26.70;87.00
18126;DHT22;53956;52.442;13.284;2023-09-18T13:39:58;26.70;88.70
18126;DHT22;53956;52.442;13.284;2023-09-18T13:42:27;26.70;90.00
18126;DHT22;53956;52.442;13.284;2023-09-18T13:44:55;26.60;90.40
18126;DHT22;53956;52.442;13.284;2023-09-18T13:47:23;26.60;92.20
18126;DHT22;53956;52.442;13.284;2023-09-18T13:49:49;26.60;92.30
18126;DHT22;53956;52.442;13.284;2023-09-18T13:52:16;26.50;91.90
18126;DHT22;53956;52.442;13.284;2023-09-18T13:54:45;26.50;93.30
18126;DHT22;53956;52.442;13.284;2023-09-18T13:57:16;26.40;92.90
18126;DHT22;53956;52.442;13.284;2023-09-18T13:59:43;26.10;95.70
18126;DHT22;53956;52.442;13.284;2023-09-18T14:02:10;26.00;95.30
18126;DHT22;53956;52.442;13.284;2023-09-18T14:04:38;25.90;95.20
18126;DHT22;53956;52.442;13.284;2023-09-18T14:07:06;26.10;96.40
18126;DHT22;53956;52.442;13.284;2023-09-18T14:09:33;26.10;97.10
18126;DHT22;53956;52.442;13.284;2023-09-18T14:12:00;26.10;96.60
18126;DHT22;53956;52.442;13.284;2023-09-18T14:14:28;26.30;96.20
18126;DHT22;53956;52.442;13.284;2023-09-18T14:16:55;26.20;95.10
18126;DHT22;53956;52.442;13.284;2023-09-18T14:19:22;26.30;95.50
18126;DHT22;53956;52.442;13.284;2023-09-18T14:21:51;26.40;93.50
18126;DHT22;53956;52.442;13.284;2023-09-18T14:24:18;26.20;95.30
18126;DHT22;53956;52.442;13.284;2023-09-18T14:26:47;26.30;93.60
18126;DHT22;53956;52.442;13.284;2023-09-18T14:29:14;26.20;94.20
18126;DHT22;53956;52.442;13.284;2023-09-18T14:31:41;26.20;92.10
18126;DHT22;53956;52.442;13.284;2023-09-18T14:34:08;26.10;93.20
18126;DHT22;53956;52.442;13.284;2023-09-18T14:36:36;26.10;91.30
18126;DHT22;53956;52.442;13.284;2023-09-18T14:39:06;26.10;90.90
18126;DHT22;53956;52.442;13.284;2023-09-18T14:41:34;26.00;91.20
18126;DHT22;53956;52.442;13.284;2023-09-18T14:44:01;26.10;91.00
18126;DHT22;53956;52.442;13.284;2023-09-18T14:46:29;26.00;91.20
18126;DHT22;53956;52.442;13.284;2023-09-18T14:48:55;26.10;91.90
18126;DHT22;53956;52.442;13.284;2023-09-18T14:51:22;26.10;90.10
18126;DHT22;53956;52.442;13.284;2023-09-18T14:53:48;26.10;90.30
18126;DHT22;53956;52.442;13.284;2023-09-18T14:56:17;26.20;90.20
18126;DHT22;53956;52.442;13.284;2023-09-18T14:58:43;26.10;89.90
18126;DHT22;53956;52.442;13.284;2023-09-18T15:01:10;26.20;90.90
18126;DHT22;53956;52.442;13.284;2023-09-18T15:03:37;26.20;89.80
18126;DHT22;53956;52.442;13.284;2023-09-18T15:06:03;26.10;89.60
18126;DHT22;53956;52.442;13.284;2023-09-18T15:08:32;26.10;89.90
18126;DHT22;53956;52.442;13.284;2023-09-18T15:11:00;26.20;90.10
18126;DHT22;53956;52.442;13.284;2023-09-18T15:13:27;26.20;90.00
18126;DHT22;53956;52.442;13.284;2023-09-18T15:15:54;26.10;89.40
18126;DHT22;53956;52.442;13.284;2023-09-18T15:18:21;26.20;89.30
18126;DHT22;53956;52.442;13.284;2023-09-18T15:20:48;26.10;89.80